Tropical Cyclones
[Index]
Main Index Home Page Stock Weather Photos Extreme Storms Discussion Storm News and Storm Chasing Reports Tropical Cyclones / Hurricanes / Typhoons Weather Data and Links Wild Fires / Bushfires Weather Observation Techniques Weather Picture Catalogue Tornado Pictures and Reports Stock Video Footage and DVDs for sale
Season 2009-2010 Tropical Cyclone ULUI Track Map
Season 2009-2010 Summaries: [BoM-AU] [JTWC-AU] [JTWC-SIO] [JTWC-SPAC] [JTWC-SH]
<<- Previous TC | BoM 2009-2010 Season | Next TC ->>

click for intensity scale information  Lat/long Grid: Show Hide

 Date Labels: Show Hide

Bureau of Meteorology Tropical Cyclone Data

Name: ULUI
Number: 934 / 200910_09

14 Mar 2010 18:00 UTC to 20 Mar 2010 22:00 UTC

    date/time    lat    long    hPa   cat  kts
2010-03-14 18   12.9   160.0    939    4    105          
2010-03-15 00   12.9   159.5    939    4    105          
2010-03-15 06   13.0   159.0    939    4    105          
2010-03-15 12   13.1   158.7    945    4    100          
2010-03-15 18   13.2   158.4    948    4    95          
2010-03-16 00   13.3   158.1    943    4    100          
2010-03-16 06   13.4   158.0    937    4    105          
2010-03-16 12   13.5   158.0    943    4    100          
2010-03-16 18   13.7   158.0    941    4    100          
2010-03-17 00   13.8   158.0    944    4    100          
2010-03-17 06   14.0   158.0    950    4    95          
2010-03-17 12   14.3   158.0    960    3    85          
2010-03-17 18   14.7   157.9    958    3    85          
2010-03-18 00   14.9   157.8    962    3    80          
2010-03-18 06   15.1   157.7    967    3    75          
2010-03-18 12   15.5   157.5    976    2    65          
2010-03-18 18   16.2   157.3    982    2    55          
2010-03-19 00   16.6   156.6    986    1    55          
2010-03-19 06   17.4   156.1    983    2    55          
2010-03-19 12   18.0   155.6    986    1    55          
2010-03-19 18   18.8   154.3    985    2    55          
2010-03-20 00   19.6   152.9    983    2    55          
2010-03-20 06   19.9   151.3    978    2    65          
2010-03-20 12   20.0   149.8    967    3    80          
2010-03-20 18   20.4   148.1    982    2    60          
2010-03-20 22   20.7   146.8   1003         30          
Winds are 10-min average.

Tropical cyclone tracks developed by Michael Bath using data from the Bureau of Meteorology and Google Maps.


[Australian Severe Weather index] [Copyright Notice] [Email Contacts] [Search This Site] [Privacy Policy]
Document: tropical_cyclone_ului.htm Updated: 29 June 2017